Terminal Aerodrome Forecast
Issued by NWS Missoula, MT

Home | Current Version | Previous Version | Text Only | Print | Product List | Glossary On
Versions: 1 2 3 4 5 6 7 8 9 10 11 12 13 14 15 16 17 18 19 20 21 22 23 24 25 26 27 28 29 30
000
FTUS45 KMSO 241134
TAFBTM
TAF
KBTM 241134Z 2412/2512 30010G16KT P6SM VCSH SCT050 OVC060
     FM241400 30010KT P6SM SCT040 BKN070
     FM250800 25008KT 4SM -SN SCT015 OVC025=

USA.gov is the U.S. government's official web portal to all federal, state and local government web resources and services.